sensor_id;sensor_type;location;lat;lon;timestamp;P1;durP1;ratioP1;P2;durP2;ratioP2
4565;SDS011;2295;51.050;14.608;2024-01-30T00:00:07;22.33;;;11.15;;
4565;SDS011;2295;51.050;14.608;2024-01-30T00:02:36;28.00;;;11.82;;
4565;SDS011;2295;51.050;14.608;2024-01-30T00:05:05;22.60;;;11.68;;
4565;SDS011;2295;51.050;14.608;2024-01-30T00:07:33;25.38;;;11.75;;
4565;SDS011;2295;51.050;14.608;2024-01-30T00:10:04;30.30;;;12.45;;
4565;SDS011;2295;51.050;14.608;2024-01-30T00:12:32;22.15;;;10.05;;
4565;SDS011;2295;51.050;14.608;2024-01-30T00:15:01;22.73;;;10.52;;
4565;SDS011;2295;51.050;14.608;2024-01-30T00:17:31;28.23;;;10.75;;
4565;SDS011;2295;51.050;14.608;2024-01-30T00:19:59;24.25;;;11.27;;
4565;SDS011;2295;51.050;14.608;2024-01-30T00:22:28;22.17;;;10.07;;
4565;SDS011;2295;51.050;14.608;2024-01-30T00:24:56;21.45;;;9.85;;
4565;SDS011;2295;51.050;14.608;2024-01-30T00:27:26;26.65;;;11.80;;
4565;SDS011;2295;51.050;14.608;2024-01-30T00:29:55;23.70;;;10.75;;
4565;SDS011;2295;51.050;14.608;2024-01-30T00:32:23;24.45;;;11.65;;
4565;SDS011;2295;51.050;14.608;2024-01-30T00:34:52;19.23;;;10.90;;
4565;SDS011;2295;51.050;14.608;2024-01-30T00:37:20;20.33;;;10.63;;
4565;SDS011;2295;51.050;14.608;2024-01-30T00:39:50;22.42;;;10.73;;
4565;SDS011;2295;51.050;14.608;2024-01-30T00:42:18;26.50;;;11.15;;
4565;SDS011;2295;51.050;14.608;2024-01-30T00:44:48;17.85;;;9.63;;
4565;SDS011;2295;51.050;14.608;2024-01-30T00:47:19;17.75;;;9.32;;
4565;SDS011;2295;51.050;14.608;2024-01-30T00:49:47;26.50;;;11.00;;
4565;SDS011;2295;51.050;14.608;2024-01-30T00:52:16;32.67;;;11.48;;
4565;SDS011;2295;51.050;14.608;2024-01-30T00:54:45;29.13;;;10.57;;
4565;SDS011;2295;51.050;14.608;2024-01-30T00:57:13;33.78;;;12.15;;
4565;SDS011;2295;51.050;14.608;2024-01-30T00:59:42;27.75;;;10.85;;
4565;SDS011;2295;51.050;14.608;2024-01-30T01:02:12;21.05;;;10.73;;
4565;SDS011;2295;51.050;14.608;2024-01-30T01:04:41;23.08;;;10.80;;
4565;SDS011;2295;51.050;14.608;2024-01-30T01:07:10;24.50;;;10.68;;
4565;SDS011;2295;51.050;14.608;2024-01-30T01:09:39;23.13;;;10.07;;
4565;SDS011;2295;51.050;14.608;2024-01-30T01:12:07;22.95;;;10.73;;
4565;SDS011;2295;51.050;14.608;2024-01-30T01:14:36;23.80;;;9.95;;
4565;SDS011;2295;51.050;14.608;2024-01-30T01:17:05;24.08;;;10.63;;
4565;SDS011;2295;51.050;14.608;2024-01-30T01:19:34;21.80;;;10.40;;
4565;SDS011;2295;51.050;14.608;2024-01-30T01:22:03;22.85;;;10.57;;
4565;SDS011;2295;51.050;14.608;2024-01-30T01:24:31;27.17;;;10.93;;
4565;SDS011;2295;51.050;14.608;2024-01-30T01:27:00;19.85;;;10.13;;
4565;SDS011;2295;51.050;14.608;2024-01-30T01:29:29;25.20;;;11.60;;
4565;SDS011;2295;51.050;14.608;2024-01-30T01:31:57;21.58;;;10.10;;
4565;SDS011;2295;51.050;14.608;2024-01-30T01:34:26;23.50;;;10.20;;
4565;SDS011;2295;51.050;14.608;2024-01-30T01:36:57;24.25;;;10.63;;
4565;SDS011;2295;51.050;14.608;2024-01-30T01:39:26;23.40;;;10.20;;
4565;SDS011;2295;51.050;14.608;2024-01-30T01:41:54;24.90;;;10.73;;
4565;SDS011;2295;51.050;14.608;2024-01-30T01:44:23;22.88;;;10.73;;
4565;SDS011;2295;51.050;14.608;2024-01-30T01:46:51;26.27;;;10.40;;
4565;SDS011;2295;51.050;14.608;2024-01-30T01:49:22;23.33;;;10.88;;
4565;SDS011;2295;51.050;14.608;2024-01-30T01:51:51;27.73;;;10.55;;
4565;SDS011;2295;51.050;14.608;2024-01-30T01:54:24;23.00;;;10.02;;
4565;SDS011;2295;51.050;14.608;2024-01-30T01:56:54;21.30;;;10.27;;
4565;SDS011;2295;51.050;14.608;2024-01-30T01:59:22;28.30;;;11.10;;
4565;SDS011;2295;51.050;14.608;2024-01-30T02:01:52;21.45;;;10.23;;
4565;SDS011;2295;51.050;14.608;2024-01-30T02:04:23;23.35;;;9.88;;
4565;SDS011;2295;51.050;14.608;2024-01-30T02:06:52;21.60;;;9.75;;
4565;SDS011;2295;51.050;14.608;2024-01-30T02:09:20;24.55;;;9.93;;
4565;SDS011;2295;51.050;14.608;2024-01-30T02:11:50;23.13;;;10.43;;
4565;SDS011;2295;51.050;14.608;2024-01-30T02:14:22;28.02;;;10.20;;
4565;SDS011;2295;51.050;14.608;2024-01-30T02:16:54;21.60;;;10.15;;
4565;SDS011;2295;51.050;14.608;2024-01-30T02:19:23;25.85;;;10.32;;
4565;SDS011;2295;51.050;14.608;2024-01-30T02:21:53;22.67;;;10.25;;
4565;SDS011;2295;51.050;14.608;2024-01-30T02:24:22;20.70;;;9.95;;
4565;SDS011;2295;51.050;14.608;2024-01-30T02:26:50;27.60;;;10.65;;
4565;SDS011;2295;51.050;14.608;2024-01-30T02:29:18;23.80;;;10.70;;
4565;SDS011;2295;51.050;14.608;2024-01-30T02:31:47;22.92;;;11.10;;
4565;SDS011;2295;51.050;14.608;2024-01-30T02:34:16;25.33;;;10.35;;
4565;SDS011;2295;51.050;14.608;2024-01-30T02:36:48;25.30;;;10.88;;
4565;SDS011;2295;51.050;14.608;2024-01-30T02:39:18;21.73;;;10.98;;
4565;SDS011;2295;51.050;14.608;2024-01-30T02:41:47;26.90;;;11.23;;
4565;SDS011;2295;51.050;14.608;2024-01-30T02:44:15;24.27;;;10.70;;
4565;SDS011;2295;51.050;14.608;2024-01-30T02:46:44;23.60;;;10.20;;
4565;SDS011;2295;51.050;14.608;2024-01-30T02:49:12;20.85;;;9.52;;
4565;SDS011;2295;51.050;14.608;2024-01-30T02:51:41;20.58;;;10.05;;
4565;SDS011;2295;51.050;14.608;2024-01-30T02:54:09;20.98;;;9.95;;
4565;SDS011;2295;51.050;14.608;2024-01-30T02:56:39;20.95;;;10.07;;
4565;SDS011;2295;51.050;14.608;2024-01-30T02:59:07;24.65;;;9.95;;
4565;SDS011;2295;51.050;14.608;2024-01-30T03:01:42;27.15;;;10.05;;
4565;SDS011;2295;51.050;14.608;2024-01-30T03:04:11;28.05;;;9.68;;
4565;SDS011;2295;51.050;14.608;2024-01-30T03:06:44;21.23;;;9.55;;
4565;SDS011;2295;51.050;14.608;2024-01-30T03:09:15;20.08;;;10.40;;
4565;SDS011;2295;51.050;14.608;2024-01-30T03:11:45;22.45;;;9.85;;
4565;SDS011;2295;51.050;14.608;2024-01-30T03:14:14;22.85;;;10.45;;
4565;SDS011;2295;51.050;14.608;2024-01-30T03:16:43;20.13;;;9.25;;
4565;SDS011;2295;51.050;14.608;2024-01-30T03:19:12;23.20;;;9.95;;
4565;SDS011;2295;51.050;14.608;2024-01-30T03:21:43;16.25;;;8.48;;
4565;SDS011;2295;51.050;14.608;2024-01-30T03:24:11;18.15;;;8.18;;
4565;SDS011;2295;51.050;14.608;2024-01-30T03:26:40;19.33;;;10.02;;
4565;SDS011;2295;51.050;14.608;2024-01-30T03:29:10;23.23;;;11.18;;
4565;SDS011;2295;51.050;14.608;2024-01-30T03:31:39;20.50;;;10.70;;
4565;SDS011;2295;51.050;14.608;2024-01-30T03:34:07;24.77;;;10.50;;
4565;SDS011;2295;51.050;14.608;2024-01-30T03:36:36;23.08;;;10.85;;
4565;SDS011;2295;51.050;14.608;2024-01-30T03:39:04;22.63;;;10.60;;
4565;SDS011;2295;51.050;14.608;2024-01-30T03:41:32;28.40;;;11.57;;
4565;SDS011;2295;51.050;14.608;2024-01-30T03:44:01;25.33;;;11.35;;
4565;SDS011;2295;51.050;14.608;2024-01-30T03:46:31;25.60;;;10.85;;
4565;SDS011;2295;51.050;14.608;2024-01-30T03:48:59;25.48;;;10.65;;
4565;SDS011;2295;51.050;14.608;2024-01-30T03:51:28;24.90;;;9.93;;
4565;SDS011;2295;51.050;14.608;2024-01-30T03:53:56;18.05;;;9.70;;
4565;SDS011;2295;51.050;14.608;2024-01-30T03:56:25;25.55;;;10.48;;
4565;SDS011;2295;51.050;14.608;2024-01-30T03:58:53;20.25;;;10.13;;
4565;SDS011;2295;51.050;14.608;2024-01-30T04:01:30;22.80;;;9.50;;
4565;SDS011;2295;51.050;14.608;2024-01-30T04:03:59;21.52;;;9.68;;
4565;SDS011;2295;51.050;14.608;2024-01-30T04:06:28;18.98;;;9.80;;
4565;SDS011;2295;51.050;14.608;2024-01-30T04:08:56;22.60;;;10.55;;
4565;SDS011;2295;51.050;14.608;2024-01-30T04:11:25;21.95;;;9.98;;
4565;SDS011;2295;51.050;14.608;2024-01-30T04:13:53;17.70;;;9.63;;
4565;SDS011;2295;51.050;14.608;2024-01-30T04:16:21;23.10;;;9.55;;
4565;SDS011;2295;51.050;14.608;2024-01-30T04:18:52;24.27;;;10.48;;
4565;SDS011;2295;51.050;14.608;2024-01-30T04:21:20;25.42;;;10.10;;
4565;SDS011;2295;51.050;14.608;2024-01-30T04:23:50;21.60;;;9.90;;
4565;SDS011;2295;51.050;14.608;2024-01-30T04:26:19;26.50;;;11.40;;
4565;SDS011;2295;51.050;14.608;2024-01-30T04:28:47;21.85;;;9.50;;
4565;SDS011;2295;51.050;14.608;2024-01-30T04:31:16;27.23;;;10.93;;
4565;SDS011;2295;51.050;14.608;2024-01-30T04:33:44;20.38;;;10.23;;
4565;SDS011;2295;51.050;14.608;2024-01-30T04:36:14;23.33;;;10.40;;
4565;SDS011;2295;51.050;14.608;2024-01-30T04:38:43;21.30;;;9.93;;
4565;SDS011;2295;51.050;14.608;2024-01-30T04:41:11;16.27;;;9.13;;
4565;SDS011;2295;51.050;14.608;2024-01-30T04:43:40;24.00;;;10.15;;
4565;SDS011;2295;51.050;14.608;2024-01-30T04:46:08;23.60;;;11.23;;
4565;SDS011;2295;51.050;14.608;2024-01-30T04:48:37;22.98;;;10.30;;
4565;SDS011;2295;51.050;14.608;2024-01-30T04:51:05;24.77;;;10.90;;
4565;SDS011;2295;51.050;14.608;2024-01-30T04:53:35;24.10;;;11.50;;
4565;SDS011;2295;51.050;14.608;2024-01-30T04:56:04;23.25;;;10.25;;
4565;SDS011;2295;51.050;14.608;2024-01-30T04:58:33;22.02;;;10.52;;
4565;SDS011;2295;51.050;14.608;2024-01-30T05:01:02;23.17;;;10.82;;
4565;SDS011;2295;51.050;14.608;2024-01-30T05:03:32;19.85;;;10.35;;
4565;SDS011;2295;51.050;14.608;2024-01-30T05:06:01;20.63;;;9.88;;
4565;SDS011;2295;51.050;14.608;2024-01-30T05:08:30;26.77;;;11.57;;
4565;SDS011;2295;51.050;14.608;2024-01-30T05:11:01;29.88;;;13.27;;
4565;SDS011;2295;51.050;14.608;2024-01-30T05:13:30;27.25;;;12.02;;
4565;SDS011;2295;51.050;14.608;2024-01-30T05:15:59;27.13;;;10.80;;
4565;SDS011;2295;51.050;14.608;2024-01-30T05:18:33;22.20;;;10.82;;
4565;SDS011;2295;51.050;14.608;2024-01-30T05:21:05;25.48;;;10.30;;
4565;SDS011;2295;51.050;14.608;2024-01-30T05:23:33;22.90;;;10.93;;
4565;SDS011;2295;51.050;14.608;2024-01-30T05:26:12;32.00;;;14.02;;
4565;SDS011;2295;51.050;14.608;2024-01-30T05:28:41;25.83;;;11.80;;
4565;SDS011;2295;51.050;14.608;2024-01-30T05:31:10;21.33;;;11.25;;
4565;SDS011;2295;51.050;14.608;2024-01-30T05:33:39;25.77;;;11.13;;
4565;SDS011;2295;51.050;14.608;2024-01-30T05:36:11;25.20;;;11.07;;
4565;SDS011;2295;51.050;14.608;2024-01-30T05:38:39;19.08;;;9.85;;
4565;SDS011;2295;51.050;14.608;2024-01-30T05:41:08;27.27;;;10.80;;
4565;SDS011;2295;51.050;14.608;2024-01-30T05:43:41;23.60;;;10.98;;
4565;SDS011;2295;51.050;14.608;2024-01-30T05:46:10;20.60;;;10.15;;
4565;SDS011;2295;51.050;14.608;2024-01-30T05:48:41;24.50;;;10.65;;
4565;SDS011;2295;51.050;14.608;2024-01-30T05:51:09;22.95;;;10.90;;
4565;SDS011;2295;51.050;14.608;2024-01-30T05:53:37;22.38;;;11.35;;
4565;SDS011;2295;51.050;14.608;2024-01-30T05:56:08;28.83;;;10.90;;
4565;SDS011;2295;51.050;14.608;2024-01-30T05:58:37;23.83;;;11.25;;
4565;SDS011;2295;51.050;14.608;2024-01-30T06:01:08;24.83;;;12.18;;
4565;SDS011;2295;51.050;14.608;2024-01-30T06:03:36;26.40;;;11.43;;
4565;SDS011;2295;51.050;14.608;2024-01-30T06:06:05;24.65;;;11.48;;
4565;SDS011;2295;51.050;14.608;2024-01-30T06:08:34;26.90;;;11.98;;
4565;SDS011;2295;51.050;14.608;2024-01-30T06:11:03;34.35;;;12.57;;
4565;SDS011;2295;51.050;14.608;2024-01-30T06:13:40;24.00;;;11.35;;
4565;SDS011;2295;51.050;14.608;2024-01-30T06:16:10;28.77;;;12.75;;
4565;SDS011;2295;51.050;14.608;2024-01-30T06:18:39;24.02;;;11.90;;
4565;SDS011;2295;51.050;14.608;2024-01-30T06:21:10;33.33;;;12.40;;
4565;SDS011;2295;51.050;14.608;2024-01-30T06:23:38;27.08;;;12.60;;
4565;SDS011;2295;51.050;14.608;2024-01-30T06:26:09;26.30;;;13.00;;
4565;SDS011;2295;51.050;14.608;2024-01-30T06:28:38;23.77;;;11.35;;
4565;SDS011;2295;51.050;14.608;2024-01-30T06:31:06;21.15;;;10.82;;
4565;SDS011;2295;51.050;14.608;2024-01-30T06:33:36;28.15;;;11.85;;
4565;SDS011;2295;51.050;14.608;2024-01-30T06:36:09;26.23;;;11.88;;
4565;SDS011;2295;51.050;14.608;2024-01-30T06:38:37;28.10;;;12.13;;
4565;SDS011;2295;51.050;14.608;2024-01-30T06:41:05;23.50;;;11.13;;
4565;SDS011;2295;51.050;14.608;2024-01-30T06:43:34;32.70;;;11.80;;
4565;SDS011;2295;51.050;14.608;2024-01-30T06:46:02;27.65;;;12.63;;
4565;SDS011;2295;51.050;14.608;2024-01-30T06:48:31;31.17;;;13.30;;
4565;SDS011;2295;51.050;14.608;2024-01-30T06:51:01;29.42;;;12.18;;
4565;SDS011;2295;51.050;14.608;2024-01-30T06:53:29;27.20;;;12.50;;
4565;SDS011;2295;51.050;14.608;2024-01-30T06:56:01;34.15;;;12.60;;
4565;SDS011;2295;51.050;14.608;2024-01-30T06:58:29;26.95;;;11.35;;
4565;SDS011;2295;51.050;14.608;2024-01-30T07:00:59;22.88;;;11.75;;
4565;SDS011;2295;51.050;14.608;2024-01-30T07:03:28;26.15;;;12.30;;
4565;SDS011;2295;51.050;14.608;2024-01-30T07:05:56;27.83;;;12.00;;
4565;SDS011;2295;51.050;14.608;2024-01-30T07:08:26;23.17;;;11.35;;
4565;SDS011;2295;51.050;14.608;2024-01-30T07:10:55;26.08;;;12.25;;
4565;SDS011;2295;51.050;14.608;2024-01-30T07:13:27;34.22;;;12.50;;
4565;SDS011;2295;51.050;14.608;2024-01-30T07:15:56;30.63;;;12.45;;
4565;SDS011;2295;51.050;14.608;2024-01-30T07:18:26;30.77;;;13.10;;
4565;SDS011;2295;51.050;14.608;2024-01-30T07:20:55;24.90;;;12.30;;
4565;SDS011;2295;51.050;14.608;2024-01-30T07:23:23;23.75;;;11.38;;
4565;SDS011;2295;51.050;14.608;2024-01-30T07:25:53;25.95;;;12.50;;
4565;SDS011;2295;51.050;14.608;2024-01-30T07:28:21;22.83;;;11.20;;
4565;SDS011;2295;51.050;14.608;2024-01-30T07:30:50;26.75;;;12.85;;
4565;SDS011;2295;51.050;14.608;2024-01-30T07:33:18;26.88;;;12.07;;
4565;SDS011;2295;51.050;14.608;2024-01-30T07:35:47;23.27;;;11.25;;
4565;SDS011;2295;51.050;14.608;2024-01-30T07:38:15;24.98;;;11.75;;
4565;SDS011;2295;51.050;14.608;2024-01-30T07:40:44;24.45;;;12.75;;
4565;SDS011;2295;51.050;14.608;2024-01-30T07:43:13;30.98;;;11.80;;
4565;SDS011;2295;51.050;14.608;2024-01-30T07:45:42;30.40;;;12.18;;
4565;SDS011;2295;51.050;14.608;2024-01-30T07:48:11;38.15;;;12.98;;
4565;SDS011;2295;51.050;14.608;2024-01-30T07:50:40;26.88;;;11.90;;
4565;SDS011;2295;51.050;14.608;2024-01-30T07:53:09;30.83;;;12.15;;
4565;SDS011;2295;51.050;14.608;2024-01-30T07:55:37;34.00;;;12.80;;
4565;SDS011;2295;51.050;14.608;2024-01-30T07:58:06;27.00;;;12.57;;
4565;SDS011;2295;51.050;14.608;2024-01-30T08:00:35;31.23;;;13.05;;
4565;SDS011;2295;51.050;14.608;2024-01-30T08:03:04;24.20;;;12.38;;
4565;SDS011;2295;51.050;14.608;2024-01-30T08:05:32;32.30;;;13.15;;
4565;SDS011;2295;51.050;14.608;2024-01-30T08:08:01;24.13;;;11.73;;
4565;SDS011;2295;51.050;14.608;2024-01-30T08:10:29;24.75;;;11.45;;
4565;SDS011;2295;51.050;14.608;2024-01-30T08:13:00;20.88;;;11.55;;
4565;SDS011;2295;51.050;14.608;2024-01-30T08:15:29;21.38;;;11.43;;
4565;SDS011;2295;51.050;14.608;2024-01-30T08:17:59;23.73;;;11.52;;
4565;SDS011;2295;51.050;14.608;2024-01-30T08:20:30;19.98;;;10.35;;
4565;SDS011;2295;51.050;14.608;2024-01-30T08:22:58;16.85;;;9.73;;
4565;SDS011;2295;51.050;14.608;2024-01-30T08:25:27;24.30;;;11.00;;
4565;SDS011;2295;51.050;14.608;2024-01-30T08:27:56;20.40;;;10.80;;
4565;SDS011;2295;51.050;14.608;2024-01-30T08:30:25;22.77;;;11.00;;
4565;SDS011;2295;51.050;14.608;2024-01-30T08:32:53;22.70;;;10.27;;
4565;SDS011;2295;51.050;14.608;2024-01-30T08:35:23;22.55;;;9.77;;
4565;SDS011;2295;51.050;14.608;2024-01-30T08:37:52;23.77;;;11.75;;
4565;SDS011;2295;51.050;14.608;2024-01-30T08:40:20;25.85;;;10.38;;
4565;SDS011;2295;51.050;14.608;2024-01-30T08:42:49;24.75;;;10.73;;
4565;SDS011;2295;51.050;14.608;2024-01-30T08:45:17;22.92;;;11.13;;
4565;SDS011;2295;51.050;14.608;2024-01-30T08:47:46;24.52;;;10.90;;
4565;SDS011;2295;51.050;14.608;2024-01-30T08:50:14;22.45;;;11.23;;
4565;SDS011;2295;51.050;14.608;2024-01-30T08:52:44;24.33;;;11.73;;
4565;SDS011;2295;51.050;14.608;2024-01-30T08:55:15;20.17;;;10.63;;
4565;SDS011;2295;51.050;14.608;2024-01-30T08:57:44;20.33;;;11.18;;
4565;SDS011;2295;51.050;14.608;2024-01-30T09:00:13;22.30;;;11.48;;
4565;SDS011;2295;51.050;14.608;2024-01-30T09:02:42;21.15;;;11.02;;
4565;SDS011;2295;51.050;14.608;2024-01-30T09:05:11;24.45;;;11.48;;
4565;SDS011;2295;51.050;14.608;2024-01-30T09:07:40;23.92;;;11.23;;
4565;SDS011;2295;51.050;14.608;2024-01-30T09:10:14;20.13;;;10.38;;
4565;SDS011;2295;51.050;14.608;2024-01-30T09:12:46;22.63;;;10.70;;
4565;SDS011;2295;51.050;14.608;2024-01-30T09:15:16;20.70;;;9.73;;
4565;SDS011;2295;51.050;14.608;2024-01-30T09:17:44;21.50;;;11.00;;
4565;SDS011;2295;51.050;14.608;2024-01-30T09:20:12;25.08;;;11.02;;
4565;SDS011;2295;51.050;14.608;2024-01-30T09:22:41;23.30;;;10.77;;
4565;SDS011;2295;51.050;14.608;2024-01-30T09:25:10;22.02;;;10.80;;
4565;SDS011;2295;51.050;14.608;2024-01-30T09:27:40;22.27;;;10.88;;
4565;SDS011;2295;51.050;14.608;2024-01-30T09:30:09;19.15;;;10.23;;
4565;SDS011;2295;51.050;14.608;2024-01-30T09:32:39;24.27;;;10.93;;
4565;SDS011;2295;51.050;14.608;2024-01-30T09:35:07;25.35;;;11.73;;
4565;SDS011;2295;51.050;14.608;2024-01-30T09:37:36;21.05;;;10.48;;
4565;SDS011;2295;51.050;14.608;2024-01-30T09:40:06;22.08;;;10.02;;
4565;SDS011;2295;51.050;14.608;2024-01-30T09:42:36;23.02;;;10.63;;
4565;SDS011;2295;51.050;14.608;2024-01-30T09:45:06;22.02;;;10.80;;
4565;SDS011;2295;51.050;14.608;2024-01-30T09:47:39;21.67;;;10.43;;
4565;SDS011;2295;51.050;14.608;2024-01-30T09:50:10;24.27;;;11.48;;
4565;SDS011;2295;51.050;14.608;2024-01-30T09:52:40;19.50;;;10.27;;
4565;SDS011;2295;51.050;14.608;2024-01-30T09:55:08;18.50;;;10.40;;
4565;SDS011;2295;51.050;14.608;2024-01-30T09:57:37;28.60;;;10.75;;
4565;SDS011;2295;51.050;14.608;2024-01-30T10:00:14;21.20;;;10.60;;
4565;SDS011;2295;51.050;14.608;2024-01-30T10:02:43;25.77;;;10.88;;
4565;SDS011;2295;51.050;14.608;2024-01-30T10:05:13;21.88;;;11.32;;
4565;SDS011;2295;51.050;14.608;2024-01-30T10:07:50;22.40;;;11.10;;
4565;SDS011;2295;51.050;14.608;2024-01-30T10:10:25;29.08;;;12.75;;
4565;SDS011;2295;51.050;14.608;2024-01-30T10:12:54;27.52;;;11.38;;
4565;SDS011;2295;51.050;14.608;2024-01-30T10:15:24;27.13;;;11.50;;
4565;SDS011;2295;51.050;14.608;2024-01-30T10:17:55;28.92;;;11.48;;
4565;SDS011;2295;51.050;14.608;2024-01-30T10:20:24;25.55;;;11.30;;
4565;SDS011;2295;51.050;14.608;2024-01-30T10:22:53;25.88;;;11.73;;
4565;SDS011;2295;51.050;14.608;2024-01-30T10:25:21;19.35;;;10.18;;
4565;SDS011;2295;51.050;14.608;2024-01-30T10:27:52;25.77;;;11.10;;
4565;SDS011;2295;51.050;14.608;2024-01-30T10:30:21;21.38;;;10.70;;
4565;SDS011;2295;51.050;14.608;2024-01-30T10:32:55;19.92;;;10.65;;
4565;SDS011;2295;51.050;14.608;2024-01-30T10:35:23;23.63;;;10.50;;
4565;SDS011;2295;51.050;14.608;2024-01-30T10:37:58;21.35;;;11.00;;
4565;SDS011;2295;51.050;14.608;2024-01-30T10:40:27;26.55;;;12.30;;
4565;SDS011;2295;51.050;14.608;2024-01-30T10:42:56;28.50;;;11.43;;
4565;SDS011;2295;51.050;14.608;2024-01-30T10:45:32;23.67;;;11.15;;
4565;SDS011;2295;51.050;14.608;2024-01-30T10:48:03;24.95;;;12.45;;
4565;SDS011;2295;51.050;14.608;2024-01-30T10:50:34;20.55;;;11.23;;
4565;SDS011;2295;51.050;14.608;2024-01-30T10:53:16;21.50;;;10.45;;
4565;SDS011;2295;51.050;14.608;2024-01-30T10:55:46;21.05;;;11.50;;
4565;SDS011;2295;51.050;14.608;2024-01-30T10:58:16;24.75;;;11.10;;
4565;SDS011;2295;51.050;14.608;2024-01-30T11:00:46;23.95;;;11.00;;
4565;SDS011;2295;51.050;14.608;2024-01-30T11:03:15;23.48;;;10.20;;
4565;SDS011;2295;51.050;14.608;2024-01-30T11:05:48;24.48;;;11.10;;
4565;SDS011;2295;51.050;14.608;2024-01-30T11:08:26;23.58;;;11.18;;
4565;SDS011;2295;51.050;14.608;2024-01-30T11:10:55;21.52;;;10.95;;
4565;SDS011;2295;51.050;14.608;2024-01-30T11:13:26;27.85;;;11.60;;
4565;SDS011;2295;51.050;14.608;2024-01-30T11:16:01;21.65;;;10.48;;
4565;SDS011;2295;51.050;14.608;2024-01-30T11:18:31;22.23;;;10.73;;
4565;SDS011;2295;51.050;14.608;2024-01-30T11:21:00;16.25;;;9.55;;
4565;SDS011;2295;51.050;14.608;2024-01-30T11:23:30;19.88;;;10.60;;
4565;SDS011;2295;51.050;14.608;2024-01-30T11:26:01;24.17;;;9.90;;
4565;SDS011;2295;51.050;14.608;2024-01-30T11:28:32;21.10;;;9.85;;
4565;SDS011;2295;51.050;14.608;2024-01-30T11:31:06;19.10;;;10.65;;
4565;SDS011;2295;51.050;14.608;2024-01-30T11:33:38;19.55;;;10.02;;
4565;SDS011;2295;51.050;14.608;2024-01-30T11:36:07;20.70;;;10.43;;
4565;SDS011;2295;51.050;14.608;2024-01-30T11:38:37;18.25;;;9.27;;
4565;SDS011;2295;51.050;14.608;2024-01-30T11:41:08;23.75;;;9.98;;
4565;SDS011;2295;51.050;14.608;2024-01-30T11:43:37;18.83;;;10.07;;
4565;SDS011;2295;51.050;14.608;2024-01-30T11:46:10;24.55;;;10.38;;
4565;SDS011;2295;51.050;14.608;2024-01-30T11:48:42;21.77;;;10.70;;
4565;SDS011;2295;51.050;14.608;2024-01-30T11:51:11;26.58;;;12.73;;
4565;SDS011;2295;51.050;14.608;2024-01-30T11:53:41;23.30;;;12.07;;
4565;SDS011;2295;51.050;14.608;2024-01-30T11:56:09;26.77;;;12.98;;
4565;SDS011;2295;51.050;14.608;2024-01-30T11:58:42;36.55;;;14.48;;
4565;SDS011;2295;51.050;14.608;2024-01-30T12:01:12;26.67;;;13.18;;
4565;SDS011;2295;51.050;14.608;2024-01-30T12:03:48;31.95;;;16.17;;
4565;SDS011;2295;51.050;14.608;2024-01-30T12:06:17;53.20;;;25.25;;
4565;SDS011;2295;51.050;14.608;2024-01-30T12:08:55;60.60;;;24.75;;
4565;SDS011;2295;51.050;14.608;2024-01-30T12:11:24;25.77;;;14.48;;
4565;SDS011;2295;51.050;14.608;2024-01-30T12:13:53;29.75;;;15.40;;
4565;SDS011;2295;51.050;14.608;2024-01-30T12:16:29;21.88;;;10.35;;
4565;SDS011;2295;51.050;14.608;2024-01-30T12:19:04;26.38;;;12.15;;
4565;SDS011;2295;51.050;14.608;2024-01-30T12:21:35;25.90;;;12.13;;
4565;SDS011;2295;51.050;14.608;2024-01-30T12:24:06;25.60;;;12.75;;
4565;SDS011;2295;51.050;14.608;2024-01-30T12:26:40;27.63;;;14.35;;
4565;SDS011;2295;51.050;14.608;2024-01-30T12:29:09;25.10;;;12.60;;
4565;SDS011;2295;51.050;14.608;2024-01-30T12:31:38;32.22;;;18.00;;
4565;SDS011;2295;51.050;14.608;2024-01-30T12:34:13;30.85;;;12.90;;
4565;SDS011;2295;51.050;14.608;2024-01-30T12:36:44;24.75;;;12.25;;
4565;SDS011;2295;51.050;14.608;2024-01-30T12:39:15;27.20;;;11.73;;
4565;SDS011;2295;51.050;14.608;2024-01-30T12:41:43;21.58;;;10.98;;
4565;SDS011;2295;51.050;14.608;2024-01-30T12:44:13;23.25;;;12.15;;
4565;SDS011;2295;51.050;14.608;2024-01-30T12:46:49;41.83;;;17.20;;
4565;SDS011;2295;51.050;14.608;2024-01-30T12:49:18;79.25;;;29.35;;
4565;SDS011;2295;51.050;14.608;2024-01-30T12:51:49;91.30;;;32.60;;
4565;SDS011;2295;51.050;14.608;2024-01-30T12:54:17;44.05;;;18.98;;
4565;SDS011;2295;51.050;14.608;2024-01-30T12:56:46;33.10;;;16.35;;
4565;SDS011;2295;51.050;14.608;2024-01-30T12:59:14;29.02;;;15.10;;
4565;SDS011;2295;51.050;14.608;2024-01-30T13:01:59;31.23;;;13.95;;
4565;SDS011;2295;51.050;14.608;2024-01-30T13:04:33;33.10;;;13.55;;
4565;SDS011;2295;51.050;14.608;2024-01-30T13:07:18;24.60;;;13.13;;
4565;SDS011;2295;51.050;14.608;2024-01-30T13:09:47;33.45;;;14.75;;
4565;SDS011;2295;51.050;14.608;2024-01-30T13:12:15;24.92;;;12.00;;
4565;SDS011;2295;51.050;14.608;2024-01-30T13:14:44;21.98;;;12.20;;
4565;SDS011;2295;51.050;14.608;2024-01-30T13:17:17;24.58;;;13.13;;
4565;SDS011;2295;51.050;14.608;2024-01-30T13:19:46;22.98;;;12.02;;
4565;SDS011;2295;51.050;14.608;2024-01-30T13:22:19;26.88;;;12.80;;
4565;SDS011;2295;51.050;14.608;2024-01-30T13:24:48;29.40;;;11.55;;
4565;SDS011;2295;51.050;14.608;2024-01-30T13:27:16;30.52;;;15.30;;
4565;SDS011;2295;51.050;14.608;2024-01-30T13:30:00;27.55;;;12.60;;
4565;SDS011;2295;51.050;14.608;2024-01-30T13:32:50;27.92;;;13.10;;
4565;SDS011;2295;51.050;14.608;2024-01-30T13:35:20;25.75;;;13.70;;
4565;SDS011;2295;51.050;14.608;2024-01-30T13:37:49;24.55;;;12.55;;
4565;SDS011;2295;51.050;14.608;2024-01-30T13:40:18;24.05;;;12.00;;
4565;SDS011;2295;51.050;14.608;2024-01-30T13:42:46;28.70;;;14.60;;
4565;SDS011;2295;51.050;14.608;2024-01-30T13:45:17;31.20;;;15.30;;
4565;SDS011;2295;51.050;14.608;2024-01-30T13:47:54;27.60;;;12.80;;
4565;SDS011;2295;51.050;14.608;2024-01-30T13:50:47;23.30;;;11.80;;
4565;SDS011;2295;51.050;14.608;2024-01-30T13:53:19;31.60;;;13.70;;
4565;SDS011;2295;51.050;14.608;2024-01-30T13:55:53;25.80;;;12.95;;
4565;SDS011;2295;51.050;14.608;2024-01-30T13:58:27;24.08;;;12.60;;
4565;SDS011;2295;51.050;14.608;2024-01-30T14:01:09;25.35;;;13.43;;
4565;SDS011;2295;51.050;14.608;2024-01-30T14:03:40;26.65;;;12.98;;
4565;SDS011;2295;51.050;14.608;2024-01-30T14:06:14;30.25;;;14.07;;
4565;SDS011;2295;51.050;14.608;2024-01-30T14:08:43;35.00;;;15.38;;
4565;SDS011;2295;51.050;14.608;2024-01-30T14:11:19;30.17;;;14.63;;
4565;SDS011;2295;51.050;14.608;2024-01-30T14:13:47;28.38;;;14.23;;
4565;SDS011;2295;51.050;14.608;2024-01-30T14:16:15;27.67;;;13.95;;
4565;SDS011;2295;51.050;14.608;2024-01-30T14:18:48;30.63;;;15.20;;
4565;SDS011;2295;51.050;14.608;2024-01-30T14:21:17;30.63;;;14.93;;
4565;SDS011;2295;51.050;14.608;2024-01-30T14:23:46;34.55;;;15.57;;
4565;SDS011;2295;51.050;14.608;2024-01-30T14:26:14;29.40;;;14.95;;
4565;SDS011;2295;51.050;14.608;2024-01-30T14:28:43;31.45;;;16.40;;
4565;SDS011;2295;51.050;14.608;2024-01-30T14:31:15;38.55;;;16.65;;
4565;SDS011;2295;51.050;14.608;2024-01-30T14:33:47;30.65;;;14.40;;
4565;SDS011;2295;51.050;14.608;2024-01-30T14:36:17;33.55;;;15.52;;
4565;SDS011;2295;51.050;14.608;2024-01-30T14:38:49;34.33;;;15.07;;
4565;SDS011;2295;51.050;14.608;2024-01-30T14:41:21;34.22;;;17.38;;
4565;SDS011;2295;51.050;14.608;2024-01-30T14:43:50;33.63;;;16.65;;
4565;SDS011;2295;51.050;14.608;2024-01-30T14:46:18;35.60;;;15.45;;
4565;SDS011;2295;51.050;14.608;2024-01-30T14:48:52;34.90;;;16.58;;
4565;SDS011;2295;51.050;14.608;2024-01-30T14:51:21;35.53;;;16.40;;